sensor_id;sensor_type;location;lat;lon;timestamp;P1;durP1;ratioP1;P2;durP2;ratioP2
41201;SDS011;26936;50.524;8.684;2023-06-04T00:01:08;3.10;;;1.73;;
41201;SDS011;26936;50.524;8.684;2023-06-04T00:03:34;3.43;;;1.50;;
41201;SDS011;26936;50.524;8.684;2023-06-04T00:06:00;6.53;;;1.30;;
41201;SDS011;26936;50.524;8.684;2023-06-04T00:08:25;4.47;;;1.73;;
41201;SDS011;26936;50.524;8.684;2023-06-04T00:10:50;2.93;;;1.87;;
41201;SDS011;26936;50.524;8.684;2023-06-04T00:13:16;4.13;;;1.33;;
41201;SDS011;26936;50.524;8.684;2023-06-04T00:15:41;3.00;;;1.40;;
41201;SDS011;26936;50.524;8.684;2023-06-04T00:18:06;4.10;;;1.50;;
41201;SDS011;26936;50.524;8.684;2023-06-04T00:20:32;3.47;;;1.73;;
41201;SDS011;26936;50.524;8.684;2023-06-04T00:22:57;2.72;;;1.60;;
41201;SDS011;26936;50.524;8.684;2023-06-04T00:25:22;4.83;;;1.57;;
41201;SDS011;26936;50.524;8.684;2023-06-04T00:27:48;1.85;;;1.10;;
41201;SDS011;26936;50.524;8.684;2023-06-04T00:30:13;3.77;;;1.70;;
41201;SDS011;26936;50.524;8.684;2023-06-04T00:32:39;2.95;;;1.42;;
41201;SDS011;26936;50.524;8.684;2023-06-04T00:35:05;3.10;;;1.52;;
41201;SDS011;26936;50.524;8.684;2023-06-04T00:37:30;2.78;;;1.52;;
41201;SDS011;26936;50.524;8.684;2023-06-04T00:39:56;5.57;;;1.80;;
41201;SDS011;26936;50.524;8.684;2023-06-04T00:42:21;2.97;;;1.40;;
41201;SDS011;26936;50.524;8.684;2023-06-04T00:44:46;2.30;;;1.20;;
41201;SDS011;26936;50.524;8.684;2023-06-04T00:47:12;3.33;;;1.58;;
41201;SDS011;26936;50.524;8.684;2023-06-04T00:49:39;3.75;;;1.60;;
41201;SDS011;26936;50.524;8.684;2023-06-04T00:52:04;6.22;;;1.58;;
41201;SDS011;26936;50.524;8.684;2023-06-04T00:54:30;1.83;;;1.20;;
41201;SDS011;26936;50.524;8.684;2023-06-04T00:56:57;3.97;;;1.73;;
41201;SDS011;26936;50.524;8.684;2023-06-04T00:59:23;5.75;;;1.80;;
41201;SDS011;26936;50.524;8.684;2023-06-04T01:01:55;2.07;;;1.40;;
41201;SDS011;26936;50.524;8.684;2023-06-04T01:04:37;4.28;;;1.60;;
41201;SDS011;26936;50.524;8.684;2023-06-04T01:07:03;2.22;;;1.52;;
41201;SDS011;26936;50.524;8.684;2023-06-04T01:09:29;2.05;;;1.40;;
41201;SDS011;26936;50.524;8.684;2023-06-04T01:11:58;2.28;;;1.30;;
41201;SDS011;26936;50.524;8.684;2023-06-04T01:14:24;3.00;;;1.50;;
41201;SDS011;26936;50.524;8.684;2023-06-04T01:16:58;3.00;;;1.30;;
41201;SDS011;26936;50.524;8.684;2023-06-04T01:19:39;2.70;;;1.15;;
41201;SDS011;26936;50.524;8.684;2023-06-04T01:22:36;2.50;;;1.30;;
41201;SDS011;26936;50.524;8.684;2023-06-04T01:25:05;2.08;;;1.30;;
41201;SDS011;26936;50.524;8.684;2023-06-04T01:30:05;3.28;;;1.38;;
41201;SDS011;26936;50.524;8.684;2023-06-04T01:32:33;2.85;;;1.40;;
41201;SDS011;26936;50.524;8.684;2023-06-04T01:34:58;1.77;;;1.17;;
41201;SDS011;26936;50.524;8.684;2023-06-04T01:37:25;1.75;;;1.38;;
41201;SDS011;26936;50.524;8.684;2023-06-04T01:39:51;3.60;;;1.30;;
41201;SDS011;26936;50.524;8.684;2023-06-04T01:42:16;4.32;;;1.35;;
41201;SDS011;26936;50.524;8.684;2023-06-04T01:44:41;3.07;;;1.40;;
41201;SDS011;26936;50.524;8.684;2023-06-04T01:47:07;1.90;;;1.40;;
41201;SDS011;26936;50.524;8.684;2023-06-04T01:49:32;3.13;;;1.43;;
41201;SDS011;26936;50.524;8.684;2023-06-04T01:51:57;2.03;;;1.48;;
41201;SDS011;26936;50.524;8.684;2023-06-04T01:54:22;3.13;;;1.50;;
41201;SDS011;26936;50.524;8.684;2023-06-04T01:56:49;3.35;;;1.63;;
41201;SDS011;26936;50.524;8.684;2023-06-04T01:59:14;2.67;;;1.50;;
41201;SDS011;26936;50.524;8.684;2023-06-04T02:01:41;1.83;;;1.48;;
41201;SDS011;26936;50.524;8.684;2023-06-04T02:04:06;3.53;;;1.33;;
41201;SDS011;26936;50.524;8.684;2023-06-04T02:06:31;3.07;;;1.50;;
41201;SDS011;26936;50.524;8.684;2023-06-04T02:08:57;4.23;;;1.50;;
41201;SDS011;26936;50.524;8.684;2023-06-04T02:11:22;3.50;;;1.55;;
41201;SDS011;26936;50.524;8.684;2023-06-04T02:13:47;6.13;;;1.70;;
41201;SDS011;26936;50.524;8.684;2023-06-04T02:16:12;3.73;;;1.53;;
41201;SDS011;26936;50.524;8.684;2023-06-04T02:18:38;2.33;;;1.33;;
41201;SDS011;26936;50.524;8.684;2023-06-04T02:21:03;3.40;;;1.40;;
41201;SDS011;26936;50.524;8.684;2023-06-04T02:23:29;3.50;;;1.63;;
41201;SDS011;26936;50.524;8.684;2023-06-04T02:25:54;2.92;;;1.63;;
41201;SDS011;26936;50.524;8.684;2023-06-04T02:28:20;3.27;;;1.50;;
41201;SDS011;26936;50.524;8.684;2023-06-04T02:30:45;3.00;;;1.42;;
41201;SDS011;26936;50.524;8.684;2023-06-04T02:33:11;2.17;;;1.45;;
41201;SDS011;26936;50.524;8.684;2023-06-04T02:35:37;2.28;;;1.42;;
41201;SDS011;26936;50.524;8.684;2023-06-04T02:38:02;2.75;;;1.60;;
41201;SDS011;26936;50.524;8.684;2023-06-04T02:40:29;4.10;;;1.63;;
41201;SDS011;26936;50.524;8.684;2023-06-04T02:42:54;3.22;;;1.58;;
41201;SDS011;26936;50.524;8.684;2023-06-04T02:45:21;2.72;;;1.52;;
41201;SDS011;26936;50.524;8.684;2023-06-04T02:47:47;3.15;;;1.60;;
41201;SDS011;26936;50.524;8.684;2023-06-04T02:50:13;4.20;;;1.70;;
41201;SDS011;26936;50.524;8.684;2023-06-04T02:52:39;2.33;;;1.50;;
41201;SDS011;26936;50.524;8.684;2023-06-04T02:55:04;3.58;;;1.40;;
41201;SDS011;26936;50.524;8.684;2023-06-04T02:57:31;5.18;;;1.70;;
41201;SDS011;26936;50.524;8.684;2023-06-04T02:59:56;4.47;;;1.77;;
41201;SDS011;26936;50.524;8.684;2023-06-04T03:02:22;4.70;;;1.93;;
41201;SDS011;26936;50.524;8.684;2023-06-04T03:04:47;2.50;;;1.53;;
41201;SDS011;26936;50.524;8.684;2023-06-04T03:07:16;2.65;;;1.45;;
41201;SDS011;26936;50.524;8.684;2023-06-04T03:09:45;2.58;;;1.63;;
41201;SDS011;26936;50.524;8.684;2023-06-04T03:12:11;5.50;;;1.58;;
41201;SDS011;26936;50.524;8.684;2023-06-04T03:14:36;2.42;;;1.35;;
41201;SDS011;26936;50.524;8.684;2023-06-04T03:17:01;4.33;;;1.53;;
41201;SDS011;26936;50.524;8.684;2023-06-04T03:19:33;5.05;;;1.60;;
41201;SDS011;26936;50.524;8.684;2023-06-04T03:22:00;3.08;;;1.70;;
41201;SDS011;26936;50.524;8.684;2023-06-04T03:24:25;3.50;;;1.60;;
41201;SDS011;26936;50.524;8.684;2023-06-04T03:26:51;2.75;;;1.50;;
41201;SDS011;26936;50.524;8.684;2023-06-04T03:29:16;5.23;;;1.77;;
41201;SDS011;26936;50.524;8.684;2023-06-04T03:31:43;2.73;;;1.70;;
41201;SDS011;26936;50.524;8.684;2023-06-04T03:34:09;2.80;;;1.77;;
41201;SDS011;26936;50.524;8.684;2023-06-04T03:36:35;9.13;;;2.07;;
41201;SDS011;26936;50.524;8.684;2023-06-04T03:39:02;5.25;;;1.85;;
41201;SDS011;26936;50.524;8.684;2023-06-04T03:41:29;3.47;;;1.55;;
41201;SDS011;26936;50.524;8.684;2023-06-04T03:43:54;4.10;;;1.70;;
41201;SDS011;26936;50.524;8.684;2023-06-04T03:46:20;3.90;;;1.90;;
41201;SDS011;26936;50.524;8.684;2023-06-04T03:48:45;2.95;;;1.55;;
41201;SDS011;26936;50.524;8.684;2023-06-04T03:51:11;2.80;;;1.48;;
41201;SDS011;26936;50.524;8.684;2023-06-04T03:53:36;4.70;;;1.42;;
41201;SDS011;26936;50.524;8.684;2023-06-04T03:56:01;2.78;;;1.65;;
41201;SDS011;26936;50.524;8.684;2023-06-04T03:58:27;2.85;;;1.50;;
41201;SDS011;26936;50.524;8.684;2023-06-04T04:00:53;2.45;;;1.50;;
41201;SDS011;26936;50.524;8.684;2023-06-04T04:03:19;3.05;;;1.55;;
41201;SDS011;26936;50.524;8.684;2023-06-04T04:05:44;3.45;;;1.60;;
41201;SDS011;26936;50.524;8.684;2023-06-04T04:08:10;5.50;;;1.77;;
41201;SDS011;26936;50.524;8.684;2023-06-04T04:10:35;4.45;;;1.42;;
41201;SDS011;26936;50.524;8.684;2023-06-04T04:13:00;2.73;;;1.70;;
41201;SDS011;26936;50.524;8.684;2023-06-04T04:15:25;2.33;;;1.40;;
41201;SDS011;26936;50.524;8.684;2023-06-04T04:17:52;2.33;;;1.52;;
41201;SDS011;26936;50.524;8.684;2023-06-04T04:20:17;2.97;;;1.63;;
41201;SDS011;26936;50.524;8.684;2023-06-04T04:22:43;7.30;;;1.60;;
41201;SDS011;26936;50.524;8.684;2023-06-04T04:25:08;3.00;;;1.65;;
41201;SDS011;26936;50.524;8.684;2023-06-04T04:27:34;2.70;;;1.70;;
41201;SDS011;26936;50.524;8.684;2023-06-04T04:30:03;3.28;;;1.50;;
41201;SDS011;26936;50.524;8.684;2023-06-04T04:32:30;2.92;;;1.58;;
41201;SDS011;26936;50.524;8.684;2023-06-04T04:34:55;3.78;;;1.55;;
41201;SDS011;26936;50.524;8.684;2023-06-04T04:37:22;2.95;;;1.55;;
41201;SDS011;26936;50.524;8.684;2023-06-04T04:39:47;2.28;;;1.48;;
41201;SDS011;26936;50.524;8.684;2023-06-04T04:42:16;4.20;;;1.40;;
41201;SDS011;26936;50.524;8.684;2023-06-04T04:44:42;3.22;;;1.30;;
41201;SDS011;26936;50.524;8.684;2023-06-04T04:47:07;3.13;;;1.50;;
41201;SDS011;26936;50.524;8.684;2023-06-04T04:49:32;4.30;;;1.50;;
41201;SDS011;26936;50.524;8.684;2023-06-04T04:51:58;2.67;;;1.50;;
41201;SDS011;26936;50.524;8.684;2023-06-04T04:54:23;2.70;;;1.50;;
41201;SDS011;26936;50.524;8.684;2023-06-04T04:56:48;2.20;;;1.70;;
41201;SDS011;26936;50.524;8.684;2023-06-04T04:59:13;3.42;;;1.60;;
41201;SDS011;26936;50.524;8.684;2023-06-04T05:01:39;2.63;;;1.40;;
41201;SDS011;26936;50.524;8.684;2023-06-04T05:04:04;3.13;;;1.50;;
41201;SDS011;26936;50.524;8.684;2023-06-04T05:06:29;2.42;;;1.40;;
41201;SDS011;26936;50.524;8.684;2023-06-04T05:08:55;2.83;;;1.48;;
41201;SDS011;26936;50.524;8.684;2023-06-04T05:11:20;5.45;;;1.50;;
41201;SDS011;26936;50.524;8.684;2023-06-04T05:13:46;4.45;;;1.70;;
41201;SDS011;26936;50.524;8.684;2023-06-04T05:16:11;2.80;;;1.50;;
41201;SDS011;26936;50.524;8.684;2023-06-04T05:18:37;3.50;;;1.52;;
41201;SDS011;26936;50.524;8.684;2023-06-04T05:21:06;3.30;;;1.48;;
41201;SDS011;26936;50.524;8.684;2023-06-04T05:23:32;3.92;;;1.60;;
41201;SDS011;26936;50.524;8.684;2023-06-04T05:26:02;2.28;;;1.42;;
41201;SDS011;26936;50.524;8.684;2023-06-04T05:28:28;5.55;;;2.05;;
41201;SDS011;26936;50.524;8.684;2023-06-04T05:30:53;3.42;;;1.50;;
41201;SDS011;26936;50.524;8.684;2023-06-04T05:33:24;4.20;;;1.50;;
41201;SDS011;26936;50.524;8.684;2023-06-04T05:35:49;1.92;;;1.25;;
41201;SDS011;26936;50.524;8.684;2023-06-04T05:38:16;2.47;;;1.38;;
41201;SDS011;26936;50.524;8.684;2023-06-04T05:40:43;3.00;;;1.67;;
41201;SDS011;26936;50.524;8.684;2023-06-04T05:43:10;5.50;;;1.52;;
41201;SDS011;26936;50.524;8.684;2023-06-04T05:45:35;2.80;;;1.58;;
41201;SDS011;26936;50.524;8.684;2023-06-04T05:48:01;3.63;;;1.63;;
41201;SDS011;26936;50.524;8.684;2023-06-04T05:50:27;5.30;;;1.47;;
41201;SDS011;26936;50.524;8.684;2023-06-04T05:52:53;3.25;;;1.63;;
41201;SDS011;26936;50.524;8.684;2023-06-04T05:55:18;2.85;;;1.40;;
41201;SDS011;26936;50.524;8.684;2023-06-04T05:57:44;2.15;;;1.27;;
41201;SDS011;26936;50.524;8.684;2023-06-04T06:00:10;3.08;;;1.35;;
41201;SDS011;26936;50.524;8.684;2023-06-04T06:02:35;2.42;;;1.60;;
41201;SDS011;26936;50.524;8.684;2023-06-04T06:05:02;4.07;;;1.70;;
41201;SDS011;26936;50.524;8.684;2023-06-04T06:07:28;4.85;;;1.50;;
41201;SDS011;26936;50.524;8.684;2023-06-04T06:09:53;3.92;;;1.50;;
41201;SDS011;26936;50.524;8.684;2023-06-04T06:12:18;5.30;;;1.60;;
41201;SDS011;26936;50.524;8.684;2023-06-04T06:14:43;4.10;;;1.30;;
41201;SDS011;26936;50.524;8.684;2023-06-04T06:17:09;2.17;;;1.30;;
41201;SDS011;26936;50.524;8.684;2023-06-04T06:19:36;5.43;;;1.65;;
41201;SDS011;26936;50.524;8.684;2023-06-04T06:22:02;1.58;;;1.38;;
41201;SDS011;26936;50.524;8.684;2023-06-04T06:24:28;3.40;;;1.48;;
41201;SDS011;26936;50.524;8.684;2023-06-04T06:26:54;2.35;;;1.20;;
41201;SDS011;26936;50.524;8.684;2023-06-04T06:29:19;1.40;;;1.00;;
41201;SDS011;26936;50.524;8.684;2023-06-04T06:31:45;1.98;;;1.25;;
41201;SDS011;26936;50.524;8.684;2023-06-04T06:34:10;3.57;;;1.37;;
41201;SDS011;26936;50.524;8.684;2023-06-04T06:36:36;4.30;;;1.20;;
41201;SDS011;26936;50.524;8.684;2023-06-04T06:39:01;2.87;;;1.47;;
41201;SDS011;26936;50.524;8.684;2023-06-04T06:41:26;3.70;;;1.80;;
41201;SDS011;26936;50.524;8.684;2023-06-04T06:43:52;2.25;;;1.20;;
41201;SDS011;26936;50.524;8.684;2023-06-04T06:46:17;4.53;;;1.30;;
41201;SDS011;26936;50.524;8.684;2023-06-04T06:48:42;3.92;;;1.67;;
41201;SDS011;26936;50.524;8.684;2023-06-04T06:51:10;2.47;;;1.30;;
41201;SDS011;26936;50.524;8.684;2023-06-04T06:53:35;2.08;;;1.15;;
41201;SDS011;26936;50.524;8.684;2023-06-04T06:56:00;3.17;;;1.60;;
41201;SDS011;26936;50.524;8.684;2023-06-04T06:58:26;4.60;;;1.30;;
41201;SDS011;26936;50.524;8.684;2023-06-04T07:00:51;3.53;;;1.20;;
41201;SDS011;26936;50.524;8.684;2023-06-04T07:03:16;3.60;;;1.30;;
41201;SDS011;26936;50.524;8.684;2023-06-04T07:05:42;5.15;;;1.75;;
41201;SDS011;26936;50.524;8.684;2023-06-04T07:08:07;2.23;;;1.10;;
41201;SDS011;26936;50.524;8.684;2023-06-04T07:10:32;3.57;;;1.13;;
41201;SDS011;26936;50.524;8.684;2023-06-04T07:12:57;2.00;;;1.23;;
41201;SDS011;26936;50.524;8.684;2023-06-04T07:15:23;2.77;;;1.20;;
41201;SDS011;26936;50.524;8.684;2023-06-04T07:17:48;3.57;;;1.10;;
41201;SDS011;26936;50.524;8.684;2023-06-04T07:20:13;2.30;;;1.20;;
41201;SDS011;26936;50.524;8.684;2023-06-04T07:22:38;3.42;;;1.30;;
41201;SDS011;26936;50.524;8.684;2023-06-04T07:25:04;2.97;;;1.20;;
41201;SDS011;26936;50.524;8.684;2023-06-04T07:27:30;2.55;;;1.30;;
41201;SDS011;26936;50.524;8.684;2023-06-04T07:29:55;2.40;;;1.40;;
41201;SDS011;26936;50.524;8.684;2023-06-04T07:32:21;4.03;;;1.40;;
41201;SDS011;26936;50.524;8.684;2023-06-04T07:34:46;2.45;;;1.50;;
41201;SDS011;26936;50.524;8.684;2023-06-04T07:37:11;3.77;;;1.10;;
41201;SDS011;26936;50.524;8.684;2023-06-04T07:39:38;2.05;;;1.23;;
41201;SDS011;26936;50.524;8.684;2023-06-04T07:42:04;1.88;;;1.10;;
41201;SDS011;26936;50.524;8.684;2023-06-04T07:44:29;3.45;;;1.33;;
41201;SDS011;26936;50.524;8.684;2023-06-04T07:46:55;2.70;;;1.23;;
41201;SDS011;26936;50.524;8.684;2023-06-04T07:49:20;3.22;;;1.08;;
41201;SDS011;26936;50.524;8.684;2023-06-04T07:51:45;2.90;;;1.20;;
41201;SDS011;26936;50.524;8.684;2023-06-04T07:54:11;2.13;;;1.00;;
41201;SDS011;26936;50.524;8.684;2023-06-04T07:56:37;3.03;;;1.13;;
41201;SDS011;26936;50.524;8.684;2023-06-04T07:59:02;3.47;;;1.25;;
41201;SDS011;26936;50.524;8.684;2023-06-04T08:01:27;2.60;;;1.00;;
41201;SDS011;26936;50.524;8.684;2023-06-04T08:03:53;1.98;;;1.20;;
41201;SDS011;26936;50.524;8.684;2023-06-04T08:06:18;2.90;;;1.00;;
41201;SDS011;26936;50.524;8.684;2023-06-04T08:08:44;1.63;;;0.90;;
41201;SDS011;26936;50.524;8.684;2023-06-04T08:11:14;2.25;;;1.10;;
41201;SDS011;26936;50.524;8.684;2023-06-04T08:13:40;2.95;;;1.08;;
41201;SDS011;26936;50.524;8.684;2023-06-04T08:16:05;6.00;;;1.20;;
41201;SDS011;26936;50.524;8.684;2023-06-04T08:18:30;3.83;;;1.10;;
41201;SDS011;26936;50.524;8.684;2023-06-04T08:20:56;2.13;;;1.13;;
41201;SDS011;26936;50.524;8.684;2023-06-04T08:23:21;1.63;;;1.00;;
41201;SDS011;26936;50.524;8.684;2023-06-04T08:25:46;1.50;;;1.00;;
41201;SDS011;26936;50.524;8.684;2023-06-04T08:28:15;2.13;;;1.10;;
41201;SDS011;26936;50.524;8.684;2023-06-04T08:30:44;2.30;;;1.00;;
41201;SDS011;26936;50.524;8.684;2023-06-04T08:33:10;1.90;;;1.10;;
41201;SDS011;26936;50.524;8.684;2023-06-04T08:35:36;4.65;;;1.10;;
41201;SDS011;26936;50.524;8.684;2023-06-04T08:38:01;3.07;;;1.30;;
41201;SDS011;26936;50.524;8.684;2023-06-04T08:40:27;2.72;;;1.20;;
41201;SDS011;26936;50.524;8.684;2023-06-04T08:42:52;4.68;;;1.25;;
41201;SDS011;26936;50.524;8.684;2023-06-04T08:45:23;5.05;;;1.33;;
41201;SDS011;26936;50.524;8.684;2023-06-04T08:47:49;2.15;;;1.45;;
41201;SDS011;26936;50.524;8.684;2023-06-04T08:50:19;3.17;;;1.23;;
41201;SDS011;26936;50.524;8.684;2023-06-04T08:52:49;1.60;;;1.00;;
41201;SDS011;26936;50.524;8.684;2023-06-04T08:55:17;8.77;;;3.97;;
41201;SDS011;26936;50.524;8.684;2023-06-04T08:57:43;2.10;;;1.23;;
41201;SDS011;26936;50.524;8.684;2023-06-04T09:00:08;2.40;;;1.40;;
41201;SDS011;26936;50.524;8.684;2023-06-04T09:02:37;1.80;;;1.10;;
41201;SDS011;26936;50.524;8.684;2023-06-04T09:05:03;1.73;;;1.00;;
41201;SDS011;26936;50.524;8.684;2023-06-04T09:07:29;2.55;;;1.25;;
41201;SDS011;26936;50.524;8.684;2023-06-04T09:09:56;4.40;;;1.55;;
41201;SDS011;26936;50.524;8.684;2023-06-04T09:12:24;1.95;;;1.20;;
41201;SDS011;26936;50.524;8.684;2023-06-04T09:14:50;6.38;;;1.25;;
41201;SDS011;26936;50.524;8.684;2023-06-04T09:17:20;3.95;;;1.10;;
41201;SDS011;26936;50.524;8.684;2023-06-04T09:19:47;3.72;;;1.40;;
41201;SDS011;26936;50.524;8.684;2023-06-04T09:22:12;4.13;;;1.50;;
41201;SDS011;26936;50.524;8.684;2023-06-04T09:24:44;2.20;;;1.30;;
41201;SDS011;26936;50.524;8.684;2023-06-04T09:27:18;5.93;;;1.60;;
41201;SDS011;26936;50.524;8.684;2023-06-04T09:29:48;3.42;;;1.20;;
41201;SDS011;26936;50.524;8.684;2023-06-04T09:32:27;2.17;;;1.58;;
41201;SDS011;26936;50.524;8.684;2023-06-04T09:37:39;2.05;;;1.50;;
41201;SDS011;26936;50.524;8.684;2023-06-04T09:40:05;4.00;;;1.90;;
41201;SDS011;26936;50.524;8.684;2023-06-04T09:42:42;4.53;;;1.20;;
41201;SDS011;26936;50.524;8.684;2023-06-04T09:45:08;4.18;;;1.33;;
41201;SDS011;26936;50.524;8.684;2023-06-04T09:47:41;1.88;;;1.40;;
41201;SDS011;26936;50.524;8.684;2023-06-04T09:50:07;3.05;;;1.60;;
41201;SDS011;26936;50.524;8.684;2023-06-04T09:52:33;4.43;;;1.83;;
41201;SDS011;26936;50.524;8.684;2023-06-04T09:54:59;2.97;;;1.55;;
41201;SDS011;26936;50.524;8.684;2023-06-04T09:57:24;2.30;;;1.40;;
41201;SDS011;26936;50.524;8.684;2023-06-04T09:59:50;3.03;;;1.90;;
41201;SDS011;26936;50.524;8.684;2023-06-04T10:02:21;2.45;;;1.77;;
41201;SDS011;26936;50.524;8.684;2023-06-04T10:04:48;2.97;;;1.95;;
41201;SDS011;26936;50.524;8.684;2023-06-04T10:07:19;4.32;;;1.90;;
41201;SDS011;26936;50.524;8.684;2023-06-04T10:09:45;3.13;;;1.80;;
41201;SDS011;26936;50.524;8.684;2023-06-04T10:12:16;4.55;;;2.00;;
41201;SDS011;26936;50.524;8.684;2023-06-04T10:14:45;2.60;;;1.83;;
41201;SDS011;26936;50.524;8.684;2023-06-04T10:17:16;4.63;;;1.90;;
41201;SDS011;26936;50.524;8.684;2023-06-04T10:19:43;2.53;;;1.55;;
41201;SDS011;26936;50.524;8.684;2023-06-04T10:22:10;2.30;;;1.30;;
41201;SDS011;26936;50.524;8.684;2023-06-04T10:24:36;4.00;;;1.40;;
41201;SDS011;26936;50.524;8.684;2023-06-04T10:27:02;2.15;;;1.35;;
41201;SDS011;26936;50.524;8.684;2023-06-04T10:29:35;2.92;;;1.90;;
41201;SDS011;26936;50.524;8.684;2023-06-04T10:32:00;3.10;;;1.48;;
41201;SDS011;26936;50.524;8.684;2023-06-04T10:34:26;2.55;;;1.73;;
41201;SDS011;26936;50.524;8.684;2023-06-04T10:36:51;2.00;;;1.60;;
41201;SDS011;26936;50.524;8.684;2023-06-04T10:39:30;1.80;;;1.38;;
41201;SDS011;26936;50.524;8.684;2023-06-04T10:42:00;3.80;;;2.03;;
41201;SDS011;26936;50.524;8.684;2023-06-04T10:44:30;2.58;;;1.70;;
41201;SDS011;26936;50.524;8.684;2023-06-04T10:46:57;3.88;;;1.80;;
41201;SDS011;26936;50.524;8.684;2023-06-04T10:49:26;2.38;;;1.55;;
41201;SDS011;26936;50.524;8.684;2023-06-04T10:51:53;3.78;;;1.90;;
41201;SDS011;26936;50.524;8.684;2023-06-04T10:54:23;3.45;;;2.25;;
41201;SDS011;26936;50.524;8.684;2023-06-04T10:56:50;3.72;;;1.88;;
41201;SDS011;26936;50.524;8.684;2023-06-04T10:59:17;6.38;;;1.70;;
41201;SDS011;26936;50.524;8.684;2023-06-04T11:01:43;4.10;;;1.80;;
41201;SDS011;26936;50.524;8.684;2023-06-04T11:04:22;3.03;;;1.55;;
41201;SDS011;26936;50.524;8.684;2023-06-04T11:07:01;2.17;;;1.30;;
41201;SDS011;26936;50.524;8.684;2023-06-04T11:09:28;3.50;;;1.75;;
41201;SDS011;26936;50.524;8.684;2023-06-04T11:12:00;5.40;;;2.05;;
41201;SDS011;26936;50.524;8.684;2023-06-04T11:14:26;3.88;;;1.65;;
41201;SDS011;26936;50.524;8.684;2023-06-04T11:16:51;3.50;;;1.77;;
41201;SDS011;26936;50.524;8.684;2023-06-04T11:19:17;3.58;;;1.17;;
41201;SDS011;26936;50.524;8.684;2023-06-04T11:21:43;3.05;;;1.65;;
41201;SDS011;26936;50.524;8.684;2023-06-04T11:24:08;3.97;;;1.70;;
41201;SDS011;26936;50.524;8.684;2023-06-04T11:26:34;5.28;;;1.80;;
41201;SDS011;26936;50.524;8.684;2023-06-04T11:29:01;3.72;;;1.88;;
41201;SDS011;26936;50.524;8.684;2023-06-04T11:31:39;4.57;;;1.80;;
41201;SDS011;26936;50.524;8.684;2023-06-04T11:34:07;2.75;;;1.67;;
41201;SDS011;26936;50.524;8.684;2023-06-04T11:36:32;2.40;;;1.60;;
41201;SDS011;26936;50.524;8.684;2023-06-04T11:38:58;3.08;;;1.90;;
41201;SDS011;26936;50.524;8.684;2023-06-04T11:41:31;3.80;;;1.67;;
41201;SDS011;26936;50.524;8.684;2023-06-04T11:43:57;3.30;;;2.10;;
41201;SDS011;26936;50.524;8.684;2023-06-04T11:46:26;3.97;;;2.13;;
41201;SDS011;26936;50.524;8.684;2023-06-04T11:48:51;2.80;;;2.00;;
41201;SDS011;26936;50.524;8.684;2023-06-04T11:51:20;3.45;;;2.10;;
41201;SDS011;26936;50.524;8.684;2023-06-04T11:53:46;2.85;;;2.10;;
41201;SDS011;26936;50.524;8.684;2023-06-04T11:56:12;2.38;;;1.77;;
41201;SDS011;26936;50.524;8.684;2023-06-04T11:58:37;2.25;;;1.77;;
41201;SDS011;26936;50.524;8.684;2023-06-04T12:01:03;3.03;;;2.00;;
41201;SDS011;26936;50.524;8.684;2023-06-04T12:03:36;5.35;;;2.05;;
41201;SDS011;26936;50.524;8.684;2023-06-04T12:06:09;3.80;;;2.25;;
41201;SDS011;26936;50.524;8.684;2023-06-04T12:13:59;2.53;;;1.88;;
41201;SDS011;26936;50.524;8.684;2023-06-04T12:16:26;3.22;;;2.35;;
41201;SDS011;26936;50.524;8.684;2023-06-04T12:18:52;3.60;;;2.17;;
41201;SDS011;26936;50.524;8.684;2023-06-04T12:21:36;3.10;;;2.20;;
41201;SDS011;26936;50.524;8.684;2023-06-04T12:24:09;3.63;;;2.35;;
41201;SDS011;26936;50.524;8.684;2023-06-04T12:26:35;5.28;;;2.13;;
41201;SDS011;26936;50.524;8.684;2023-06-04T12:29:15;4.05;;;2.00;;
41201;SDS011;26936;50.524;8.684;2023-06-04T12:31:43;2.60;;;2.00;;
41201;SDS011;26936;50.524;8.684;2023-06-04T12:34:10;3.70;;;1.90;;
41201;SDS011;26936;50.524;8.684;2023-06-04T12:36:36;4.00;;;1.90;;
41201;SDS011;26936;50.524;8.684;2023-06-04T12:39:03;2.65;;;1.92;;
41201;SDS011;26936;50.524;8.684;2023-06-04T12:41:30;3.17;;;2.22;;
41201;SDS011;26936;50.524;8.684;2023-06-04T12:43:56;3.22;;;2.10;;
41201;SDS011;26936;50.524;8.684;2023-06-04T12:46:22;5.10;;;1.90;;
41201;SDS011;26936;50.524;8.684;2023-06-04T12:48:49;3.17;;;2.00;;
41201;SDS011;26936;50.524;8.684;2023-06-04T12:51:15;2.78;;;1.63;;
41201;SDS011;26936;50.524;8.684;2023-06-04T12:53:41;6.30;;;2.73;;
41201;SDS011;26936;50.524;8.684;2023-06-04T12:56:06;2.10;;;1.90;;
41201;SDS011;26936;50.524;8.684;2023-06-04T12:58:32;3.42;;;2.25;;
41201;SDS011;26936;50.524;8.684;2023-06-04T13:00:58;3.83;;;2.00;;
41201;SDS011;26936;50.524;8.684;2023-06-04T13:03:23;2.22;;;1.75;;
41201;SDS011;26936;50.524;8.684;2023-06-04T13:05:48;4.73;;;1.77;;
41201;SDS011;26936;50.524;8.684;2023-06-04T13:08:16;2.85;;;2.20;;
41201;SDS011;26936;50.524;8.684;2023-06-04T13:10:41;4.30;;;2.27;;
41201;SDS011;26936;50.524;8.684;2023-06-04T13:13:06;3.10;;;2.20;;
41201;SDS011;26936;50.524;8.684;2023-06-04T13:15:31;4.37;;;2.33;;
41201;SDS011;26936;50.524;8.684;2023-06-04T13:17:57;4.32;;;2.30;;
41201;SDS011;26936;50.524;8.684;2023-06-04T13:20:22;3.58;;;2.20;;
41201;SDS011;26936;50.524;8.684;2023-06-04T13:22:47;3.83;;;2.03;;
41201;SDS011;26936;50.524;8.684;2023-06-04T13:25:13;4.80;;;2.25;;
41201;SDS011;26936;50.524;8.684;2023-06-04T13:27:40;4.20;;;2.30;;
41201;SDS011;26936;50.524;8.684;2023-06-04T13:30:05;3.25;;;2.33;;
41201;SDS011;26936;50.524;8.684;2023-06-04T13:32:31;4.28;;;2.33;;
41201;SDS011;26936;50.524;8.684;2023-06-04T13:34:56;3.00;;;2.00;;
41201;SDS011;26936;50.524;8.684;2023-06-04T13:37:22;2.73;;;2.17;;
41201;SDS011;26936;50.524;8.684;2023-06-04T13:39:47;2.90;;;2.35;;
41201;SDS011;26936;50.524;8.684;2023-06-04T13:42:12;7.03;;;2.47;;
41201;SDS011;26936;50.524;8.684;2023-06-04T13:44:37;4.00;;;2.42;;
41201;SDS011;26936;50.524;8.684;2023-06-04T13:47:03;5.73;;;2.90;;
41201;SDS011;26936;50.524;8.684;2023-06-04T13:49:29;4.47;;;1.95;;
41201;SDS011;26936;50.524;8.684;2023-06-04T13:51:56;3.67;;;2.60;;
41201;SDS011;26936;50.524;8.684;2023-06-04T13:54:21;4.83;;;2.50;;
41201;SDS011;26936;50.524;8.684;2023-06-04T13:56:48;3.93;;;2.33;;
41201;SDS011;26936;50.524;8.684;2023-06-04T13:59:13;4.47;;;2.45;;
41201;SDS011;26936;50.524;8.684;2023-06-04T14:01:38;5.27;;;2.37;;
41201;SDS011;26936;50.524;8.684;2023-06-04T14:04:05;3.08;;;2.30;;
41201;SDS011;26936;50.524;8.684;2023-06-04T14:06:31;4.00;;;2.30;;
41201;SDS011;26936;50.524;8.684;2023-06-04T14:08:57;4.57;;;2.20;;
41201;SDS011;26936;50.524;8.684;2023-06-04T14:11:22;4.27;;;2.23;;
41201;SDS011;26936;50.524;8.684;2023-06-04T14:13:47;4.97;;;2.53;;
41201;SDS011;26936;50.524;8.684;2023-06-04T14:16:13;3.03;;;2.57;;
41201;SDS011;26936;50.524;8.684;2023-06-04T14:18:39;5.57;;;2.50;;
41201;SDS011;26936;50.524;8.684;2023-06-04T14:21:05;3.63;;;2.50;;
41201;SDS011;26936;50.524;8.684;2023-06-04T14:23:30;7.30;;;2.60;;
41201;SDS011;26936;50.524;8.684;2023-06-04T14:25:55;3.80;;;2.63;;
41201;SDS011;26936;50.524;8.684;2023-06-04T14:28:21;3.83;;;2.70;;
41201;SDS011;26936;50.524;8.684;2023-06-04T14:30:46;4.70;;;2.80;;
41201;SDS011;26936;50.524;8.684;2023-06-04T14:33:11;3.22;;;2.63;;
41201;SDS011;26936;50.524;8.684;2023-06-04T14:35:37;4.90;;;2.58;;
41201;SDS011;26936;50.524;8.684;2023-06-04T14:38:03;7.90;;;2.92;;
41201;SDS011;26936;50.524;8.684;2023-06-04T14:40:29;3.90;;;2.75;;
41201;SDS011;26936;50.524;8.684;2023-06-04T14:42:54;4.67;;;3.03;;
41201;SDS011;26936;50.524;8.684;2023-06-04T14:45:19;4.07;;;2.80;;
41201;SDS011;26936;50.524;8.684;2023-06-04T14:47:45;3.63;;;2.70;;
41201;SDS011;26936;50.524;8.684;2023-06-04T14:50:10;4.43;;;2.75;;
41201;SDS011;26936;50.524;8.684;2023-06-04T14:52:35;3.57;;;2.63;;
41201;SDS011;26936;50.524;8.684;2023-06-04T14:55:01;4.97;;;2.90;;